• Join FlightAware (Why Join?)
  • Login
  • US Flag 
10:38AM EDT


 

Airport Tracker/Info


-or-


 

Live Flight TrackerFlight Track Log ✈ SWA471 ✈ 19-Apr-2013 ✈ KMHT - KBWI

Flight Track Log - Related Links

Times and Time Zones

All times are in EDT time to prevent confusion due to time zone crossing. See the SWA471 flight status page for this flight to view local times or setup timezone preferences in your user account.

Time Position Orientation Groundspeed Altitude Reporting Facility
EDT Latitude Longitude Course Direction KTS MPH feet Rate Location/Type
03:57PM 42.9167 -71.4167 216° Southwest 157 181 1,400  Level KA90
03:58PM 42.8833 -71.4500 216° Southwest 179 206 2,900 2,460 Climbing KA90
03:59PM 42.9650 -71.4556 357° North 331 381 7,200 3,000 Climbing Boston Center
04:00PM 42.9994 -71.3358 68° East 317 365 10,200 2,220 Climbing Boston Center
04:01PM 43.0375 -71.1958 70° East 364 419 11,700 1,980 Climbing Boston Center
04:02PM 43.0714 -71.0589 71° East 408 470 14,300 2,280 Climbing Boston Center
04:03PM 43.0217 -70.9150 115° Southeast 381 438 16,300 1,980 Climbing Boston Center
04:04PM 42.9319 -70.9117 178° South 294 338 18,300 1,740 Climbing Boston Center
04:05PM 42.8408 -70.9508 197° South 314 361 19,800 1,560 Climbing Boston Center
04:06PM 42.7456 -70.9983 200° South 340 391 21,500 1,440 Climbing Boston Center
04:07PM 42.6461 -71.0486 200° South 368 423 22,800 1,140 Climbing Boston Center
04:08PM 42.5425 -71.1017 201° Southwest 389 448 23,900 1,320 Climbing Boston Center
04:09PM 42.4369 -71.1544 200° South 395 455 25,500 1,560 Climbing Boston Center
04:10PM 42.3778 -71.2794 237° Southwest 388 447 27,000 1,500 Climbing Boston Center
04:11PM 42.3336 -71.4403 250° West 399 459 28,600 1,620 Climbing Boston Center
04:12PM 42.2889 -71.5786 246° West 405 466 30,400 1,560 Climbing Boston Center
04:13PM 42.2458 -71.7108 246° West 400 460 31,700 1,320 Climbing Boston Center
04:14PM 42.1861 -71.8292 236° Southwest 400 460 33,100 1,080 Climbing Boston Center
04:15PM 42.1242 -71.9475 235° Southwest 389 448 34,000 420 Climbing Boston Center
04:16PM 42.0642 -72.0681 236° Southwest 394 453 34,000  Level Boston Center
04:17PM 42.0042 -72.1858 236° Southwest 394 453 34,000  Level Boston Center
04:18PM 41.9439 -72.3033 235° Southwest 394 453 34,000  Level Boston Center
04:19PM 41.8856 -72.4206 236° Southwest 394 453 34,000  Level Boston Center
04:20PM 41.8253 -72.5375 235° Southwest 394 453 34,000  Level Boston Center
04:21PM 41.7667 -72.6544 236° Southwest 389 448 34,000  Level Boston Center
04:22PM 41.7122 -72.7572 235° Southwest 389 448 34,000  Level Boston Center
04:23PM 41.6533 -72.8736 236° Southwest 384 442 34,000  Level Boston Center
04:24PM 41.5925 -72.9869 234° Southwest 384 442 34,000  Level Boston Center
04:25PM 41.5294 -73.1111 236° Southwest 374 430 34,000  Level Boston Center
04:26PM 41.4703 -73.2242 235° Southwest 374 430 34,000  Level Boston Center
04:28PM 41.3561 -73.4494 236° Southwest 362 417 34,000  Level New York Center
04:29PM 41.2953 -73.5603 234° Southwest 367 422 34,000  Level New York Center
04:30PM 41.2322 -73.6681 232° Southwest 372 428 34,000  Level New York Center
04:31PM 41.1692 -73.7756 232° Southwest 378 435 34,000  Level New York Center
04:32PM 41.1058 -73.8856 233° Southwest 378 435 34,000  Level New York Center
04:33PM 41.0406 -73.9925 231° Southwest 383 441 34,000 -840 Level New York Center
04:34PM 40.9731 -74.1019 231° Southwest 383 441 32,400 -1,920 Descending New York Center
04:35PM 40.9119 -74.1978 230° Southwest 383 441 30,200 -2,220 Descending New York Center
04:36PM 40.8461 -74.3069 231° Southwest 389 448 27,900 -2,220 Descending New York Center
04:37PM 40.7803 -74.4158 231° Southwest 389 448 25,900 -1,020 Descending New York Center
04:38PM 40.7167 -74.5219 232° Southwest 389 448 26,000  Climbing New York Center
04:39PM 40.6508 -74.6250 230° Southwest 384 442 26,000  Level New York Center
04:40PM 40.5831 -74.7222 227° Southwest 379 436 26,000  Level New York Center
04:41PM 40.5150 -74.8250 229° Southwest 374 430 26,000  Level New York Center
04:42PM 40.4469 -74.9244 228° Southwest 374 430 26,000  Level New York Center
04:43PM 40.3789 -75.0211 227° Southwest 374 430 26,000 -540 Level New York Center
04:44PM 40.3106 -75.1206 228° Southwest 374 430 25,000 -1,860 Descending New York Center
04:45PM 40.2378 -75.2275 228° Southwest 374 430 22,300 -2,460 Descending New York Center
04:46PM 40.1781 -75.3158 229° Southwest 363 418 20,200 -1,680 Descending New York Center
04:47PM 40.1144 -75.4014 226° Southwest 336 387 19,000 -600 Descending New York Center
04:48PM 40.0528 -75.4842 226° Southwest 330 380 19,000  Level New York Center
04:49PM 39.9931 -75.5667 227° Southwest 325 374 19,000 -600 Level New York Center
04:50PM 39.9333 -75.6492 227° Southwest 325 374 17,900 -1,140 Descending New York Center
04:51PM 39.8817 -75.7403 234° Southwest 315 362 16,800 -1,020 Descending New York Center
04:52PM 39.8317 -75.8367 236° Southwest 321 369 15,900 -1,200 Descending New York Center
04:54PM 39.7500 -76.0000 237° Southwest 290 334 13,600 -1,380 Descending Potomac TRACON
04:55PM 39.7000 -76.0833 232° Southwest 271 312 12,100 -1,080 Descending Potomac TRACON
04:56PM 39.6667 -76.1667 243° Southwest 241 277 11,400 -1,140 Descending Potomac TRACON
04:57PM 39.6333 -76.2333 237° Southwest 243 280 10,000 -1,260 Descending Potomac TRACON
04:58PM 39.6000 -76.3167 243° Southwest 227 261 8,900 -480 Descending Potomac TRACON
04:59PM 39.5667 -76.3667 229° Southwest 210 242 9,000  Climbing Potomac TRACON
05:00PM 39.5333 -76.4333 237° Southwest 214 246 8,900 -900 Descending Potomac TRACON
05:01PM 39.5000 -76.5000 237° Southwest 228 262 7,400 -1,500 Descending Potomac TRACON
05:02PM 39.4833 -76.5667 252° West 225 259 5,900 -1,680 Descending Potomac TRACON
05:03PM 39.4500 -76.6500 243° Southwest 226 260 4,100 -1,260 Descending Potomac TRACON
05:04PM 39.4167 -76.7167 237° Southwest 216 249 3,400 -600 Descending Potomac TRACON
05:05PM 39.3833 -76.7667 229° Southwest 207 238 3,000 -300 Descending Potomac TRACON
05:06PM 39.3333 -76.7667 180° South 187 215 2,900 -240 Descending Potomac TRACON
05:07PM 39.2833 -76.7667 180° South 166 191 2,600 -600 Descending Potomac TRACON
05:08PM 39.2500 -76.7333 142° Southeast 147 169 1,700 -840 Descending Potomac TRACON
05:09PM 39.2167 -76.7167 159° South 140 161 1,000 -780 Descending Potomac TRACON
05:11PM 39.1754 -76.6683 270° West  Level Estimated
05:18PM 39.1754 -76.6683 270° West  Level Estimated
05:19PM 39.1754 -76.6683 270° West  Level Estimated
05:20PM 39.1754 -76.6683 270° West  Level Estimated
05:21PM 39.1754 -76.6683 270° West  Level Estimated